sensor_id;sensor_type;location;lat;lon;timestamp;P1;durP1;ratioP1;P2;durP2;ratioP2
74650;SDS011;63169;46.042;14.592;2022-12-24T00:00:56;7.88;;;3.67;;
74650;SDS011;63169;46.042;14.592;2022-12-24T00:03:21;8.63;;;4.20;;
74650;SDS011;63169;46.042;14.592;2022-12-24T00:05:47;7.75;;;3.25;;
74650;SDS011;63169;46.042;14.592;2022-12-24T00:08:12;7.80;;;3.90;;
74650;SDS011;63169;46.042;14.592;2022-12-24T00:10:38;10.15;;;4.57;;
74650;SDS011;63169;46.042;14.592;2022-12-24T00:13:03;9.05;;;4.57;;
74650;SDS011;63169;46.042;14.592;2022-12-24T00:15:28;9.82;;;6.30;;
74650;SDS011;63169;46.042;14.592;2022-12-24T00:17:54;7.72;;;2.83;;
74650;SDS011;63169;46.042;14.592;2022-12-24T00:20:19;7.47;;;3.33;;
74650;SDS011;63169;46.042;14.592;2022-12-24T00:22:45;8.05;;;3.70;;
74650;SDS011;63169;46.042;14.592;2022-12-24T00:25:10;10.02;;;3.75;;
74650;SDS011;63169;46.042;14.592;2022-12-24T00:27:35;6.30;;;2.22;;
74650;SDS011;63169;46.042;14.592;2022-12-24T00:30:01;4.78;;;2.40;;
74650;SDS011;63169;46.042;14.592;2022-12-24T00:32:26;6.07;;;4.97;;
74650;SDS011;63169;46.042;14.592;2022-12-24T00:34:52;5.68;;;2.30;;
74650;SDS011;63169;46.042;14.592;2022-12-24T00:37:17;4.93;;;2.20;;
74650;SDS011;63169;46.042;14.592;2022-12-24T00:39:43;4.60;;;2.20;;
74650;SDS011;63169;46.042;14.592;2022-12-24T00:42:08;5.22;;;2.05;;
74650;SDS011;63169;46.042;14.592;2022-12-24T00:44:33;5.25;;;2.17;;
74650;SDS011;63169;46.042;14.592;2022-12-24T00:46:59;6.25;;;2.63;;
74650;SDS011;63169;46.042;14.592;2022-12-24T00:49:24;6.63;;;2.40;;
74650;SDS011;63169;46.042;14.592;2022-12-24T00:51:49;7.57;;;2.58;;
74650;SDS011;63169;46.042;14.592;2022-12-24T00:54:15;7.63;;;5.50;;
74650;SDS011;63169;46.042;14.592;2022-12-24T00:56:40;6.45;;;2.75;;
74650;SDS011;63169;46.042;14.592;2022-12-24T00:59:06;5.70;;;2.88;;
74650;SDS011;63169;46.042;14.592;2022-12-24T01:01:31;9.13;;;5.45;;
74650;SDS011;63169;46.042;14.592;2022-12-24T01:03:56;7.80;;;3.28;;
74650;SDS011;63169;46.042;14.592;2022-12-24T01:06:40;5.85;;;2.72;;
74650;SDS011;63169;46.042;14.592;2022-12-24T01:09:06;5.68;;;2.63;;
74650;SDS011;63169;46.042;14.592;2022-12-24T01:11:31;6.57;;;3.03;;
74650;SDS011;63169;46.042;14.592;2022-12-24T01:13:57;6.22;;;3.20;;
74650;SDS011;63169;46.042;14.592;2022-12-24T01:16:22;8.02;;;3.50;;
74650;SDS011;63169;46.042;14.592;2022-12-24T01:18:47;8.10;;;2.92;;
74650;SDS011;63169;46.042;14.592;2022-12-24T01:21:13;10.68;;;3.58;;
74650;SDS011;63169;46.042;14.592;2022-12-24T01:23:39;6.63;;;3.45;;
74650;SDS011;63169;46.042;14.592;2022-12-24T01:26:04;6.90;;;2.92;;
74650;SDS011;63169;46.042;14.592;2022-12-24T01:28:30;6.57;;;2.28;;
74650;SDS011;63169;46.042;14.592;2022-12-24T01:30:56;6.15;;;2.90;;
74650;SDS011;63169;46.042;14.592;2022-12-24T01:33:21;9.30;;;2.50;;
74650;SDS011;63169;46.042;14.592;2022-12-24T01:35:47;4.80;;;1.95;;
74650;SDS011;63169;46.042;14.592;2022-12-24T01:38:12;4.05;;;1.30;;
74650;SDS011;63169;46.042;14.592;2022-12-24T01:40:38;3.70;;;1.27;;
74650;SDS011;63169;46.042;14.592;2022-12-24T01:43:24;6.63;;;1.98;;
74650;SDS011;63169;46.042;14.592;2022-12-24T01:46:10;7.45;;;2.92;;
74650;SDS011;63169;46.042;14.592;2022-12-24T01:48:54;9.93;;;4.88;;
74650;SDS011;63169;46.042;14.592;2022-12-24T01:56:46;14.10;;;7.10;;
74650;SDS011;63169;46.042;14.592;2022-12-24T01:59:14;12.75;;;6.65;;
74650;SDS011;63169;46.042;14.592;2022-12-24T02:01:40;13.98;;;7.55;;
74650;SDS011;63169;46.042;14.592;2022-12-24T02:06:57;12.23;;;5.80;;
74650;SDS011;63169;46.042;14.592;2022-12-24T02:09:22;12.25;;;6.38;;
74650;SDS011;63169;46.042;14.592;2022-12-24T02:11:48;12.90;;;6.78;;
74650;SDS011;63169;46.042;14.592;2022-12-24T02:14:13;15.60;;;7.05;;
74650;SDS011;63169;46.042;14.592;2022-12-24T02:16:42;12.30;;;7.22;;
74650;SDS011;63169;46.042;14.592;2022-12-24T02:22:06;13.15;;;7.60;;
74650;SDS011;63169;46.042;14.592;2022-12-24T02:27:18;11.73;;;6.82;;
74650;SDS011;63169;46.042;14.592;2022-12-24T02:35:20;12.10;;;6.90;;
74650;SDS011;63169;46.042;14.592;2022-12-24T02:37:53;13.43;;;6.63;;
74650;SDS011;63169;46.042;14.592;2022-12-24T02:40:39;13.68;;;7.90;;
74650;SDS011;63169;46.042;14.592;2022-12-24T02:43:11;14.70;;;7.22;;
74650;SDS011;63169;46.042;14.592;2022-12-24T02:45:39;13.57;;;7.90;;
74650;SDS011;63169;46.042;14.592;2022-12-24T02:48:06;12.13;;;7.00;;
74650;SDS011;63169;46.042;14.592;2022-12-24T02:50:35;13.88;;;7.03;;
74650;SDS011;63169;46.042;14.592;2022-12-24T02:53:01;14.50;;;10.13;;
74650;SDS011;63169;46.042;14.592;2022-12-24T03:01:16;12.70;;;6.90;;
74650;SDS011;63169;46.042;14.592;2022-12-24T03:09:27;14.88;;;6.53;;
74650;SDS011;63169;46.042;14.592;2022-12-24T03:11:58;11.98;;;5.45;;
74650;SDS011;63169;46.042;14.592;2022-12-24T03:14:27;8.77;;;4.55;;
74650;SDS011;63169;46.042;14.592;2022-12-24T03:16:54;9.23;;;4.15;;
74650;SDS011;63169;46.042;14.592;2022-12-24T03:19:21;11.48;;;5.25;;
74650;SDS011;63169;46.042;14.592;2022-12-24T03:21:48;10.38;;;6.97;;
74650;SDS011;63169;46.042;14.592;2022-12-24T03:24:15;9.85;;;5.18;;
74650;SDS011;63169;46.042;14.592;2022-12-24T03:26:40;9.85;;;5.53;;
74650;SDS011;63169;46.042;14.592;2022-12-24T03:29:06;11.38;;;7.10;;
74650;SDS011;63169;46.042;14.592;2022-12-24T03:31:39;10.32;;;5.80;;
74650;SDS011;63169;46.042;14.592;2022-12-24T03:34:06;12.07;;;6.78;;
74650;SDS011;63169;46.042;14.592;2022-12-24T03:36:31;11.70;;;6.38;;
74650;SDS011;63169;46.042;14.592;2022-12-24T03:38:57;13.75;;;7.45;;
74650;SDS011;63169;46.042;14.592;2022-12-24T03:41:22;14.25;;;7.10;;
74650;SDS011;63169;46.042;14.592;2022-12-24T03:43:47;17.58;;;7.50;;
74650;SDS011;63169;46.042;14.592;2022-12-24T03:46:13;10.90;;;6.13;;
74650;SDS011;63169;46.042;14.592;2022-12-24T03:48:38;16.23;;;9.88;;
74650;SDS011;63169;46.042;14.592;2022-12-24T03:51:03;9.85;;;6.13;;
74650;SDS011;63169;46.042;14.592;2022-12-24T03:53:29;10.60;;;5.75;;
74650;SDS011;63169;46.042;14.592;2022-12-24T03:55:55;11.20;;;6.00;;
74650;SDS011;63169;46.042;14.592;2022-12-24T03:58:20;9.18;;;4.85;;
74650;SDS011;63169;46.042;14.592;2022-12-24T04:00:46;9.95;;;5.20;;
74650;SDS011;63169;46.042;14.592;2022-12-24T04:03:11;9.73;;;5.95;;
74650;SDS011;63169;46.042;14.592;2022-12-24T04:05:36;10.68;;;6.00;;
74650;SDS011;63169;46.042;14.592;2022-12-24T04:08:02;10.77;;;5.93;;
74650;SDS011;63169;46.042;14.592;2022-12-24T04:10:27;9.77;;;5.13;;
74650;SDS011;63169;46.042;14.592;2022-12-24T04:12:52;10.75;;;6.63;;
74650;SDS011;63169;46.042;14.592;2022-12-24T04:15:18;12.73;;;6.20;;
74650;SDS011;63169;46.042;14.592;2022-12-24T04:17:43;9.82;;;5.10;;
74650;SDS011;63169;46.042;14.592;2022-12-24T04:20:09;11.68;;;5.47;;
74650;SDS011;63169;46.042;14.592;2022-12-24T04:22:35;12.73;;;5.90;;
74650;SDS011;63169;46.042;14.592;2022-12-24T04:25:00;14.38;;;5.97;;
74650;SDS011;63169;46.042;14.592;2022-12-24T04:27:25;10.43;;;5.43;;
74650;SDS011;63169;46.042;14.592;2022-12-24T04:29:51;9.20;;;5.15;;
74650;SDS011;63169;46.042;14.592;2022-12-24T04:32:16;10.35;;;5.38;;
74650;SDS011;63169;46.042;14.592;2022-12-24T04:34:42;10.52;;;5.47;;
74650;SDS011;63169;46.042;14.592;2022-12-24T04:37:07;10.85;;;5.25;;
74650;SDS011;63169;46.042;14.592;2022-12-24T04:39:32;11.90;;;6.55;;
74650;SDS011;63169;46.042;14.592;2022-12-24T04:41:58;9.82;;;5.45;;
74650;SDS011;63169;46.042;14.592;2022-12-24T04:44:23;12.07;;;8.13;;
74650;SDS011;63169;46.042;14.592;2022-12-24T04:46:48;8.85;;;5.50;;
74650;SDS011;63169;46.042;14.592;2022-12-24T04:49:14;11.18;;;5.53;;
74650;SDS011;63169;46.042;14.592;2022-12-24T04:51:39;9.48;;;5.38;;
74650;SDS011;63169;46.042;14.592;2022-12-24T04:54:05;9.65;;;5.65;;
74650;SDS011;63169;46.042;14.592;2022-12-24T04:56:30;9.70;;;4.65;;
74650;SDS011;63169;46.042;14.592;2022-12-24T04:58:57;9.43;;;4.95;;
74650;SDS011;63169;46.042;14.592;2022-12-24T05:03:50;9.98;;;4.85;;
74650;SDS011;63169;46.042;14.592;2022-12-24T05:06:16;12.27;;;5.53;;
74650;SDS011;63169;46.042;14.592;2022-12-24T05:08:44;10.98;;;5.55;;
74650;SDS011;63169;46.042;14.592;2022-12-24T05:11:09;11.48;;;5.10;;
74650;SDS011;63169;46.042;14.592;2022-12-24T05:13:38;15.00;;;6.30;;
74650;SDS011;63169;46.042;14.592;2022-12-24T05:16:04;10.48;;;5.47;;
74650;SDS011;63169;46.042;14.592;2022-12-24T05:18:29;11.93;;;7.22;;
74650;SDS011;63169;46.042;14.592;2022-12-24T05:20:54;9.55;;;4.97;;
74650;SDS011;63169;46.042;14.592;2022-12-24T05:23:21;10.48;;;5.97;;
74650;SDS011;63169;46.042;14.592;2022-12-24T05:26:13;11.50;;;5.93;;
74650;SDS011;63169;46.042;14.592;2022-12-24T05:28:49;10.60;;;5.05;;
74650;SDS011;63169;46.042;14.592;2022-12-24T05:31:16;11.57;;;5.93;;
74650;SDS011;63169;46.042;14.592;2022-12-24T05:33:42;9.18;;;5.28;;
74650;SDS011;63169;46.042;14.592;2022-12-24T05:36:07;9.70;;;5.55;;
74650;SDS011;63169;46.042;14.592;2022-12-24T05:38:33;10.55;;;4.85;;
74650;SDS011;63169;46.042;14.592;2022-12-24T05:40:58;10.77;;;5.32;;
74650;SDS011;63169;46.042;14.592;2022-12-24T05:43:24;9.93;;;4.43;;
74650;SDS011;63169;46.042;14.592;2022-12-24T05:45:49;13.02;;;4.63;;
74650;SDS011;63169;46.042;14.592;2022-12-24T05:48:15;9.10;;;5.40;;
74650;SDS011;63169;46.042;14.592;2022-12-24T05:50:40;10.20;;;4.53;;
74650;SDS011;63169;46.042;14.592;2022-12-24T05:53:06;10.88;;;5.10;;
74650;SDS011;63169;46.042;14.592;2022-12-24T05:55:31;11.20;;;5.30;;
74650;SDS011;63169;46.042;14.592;2022-12-24T05:57:57;8.27;;;4.75;;
74650;SDS011;63169;46.042;14.592;2022-12-24T06:00:22;8.05;;;4.32;;
74650;SDS011;63169;46.042;14.592;2022-12-24T06:02:48;9.35;;;4.57;;
74650;SDS011;63169;46.042;14.592;2022-12-24T06:05:13;8.63;;;4.55;;
74650;SDS011;63169;46.042;14.592;2022-12-24T06:07:39;10.88;;;4.50;;
74650;SDS011;63169;46.042;14.592;2022-12-24T06:10:04;10.75;;;4.90;;
74650;SDS011;63169;46.042;14.592;2022-12-24T06:12:30;8.18;;;4.75;;
74650;SDS011;63169;46.042;14.592;2022-12-24T06:14:56;11.15;;;5.55;;
74650;SDS011;63169;46.042;14.592;2022-12-24T06:17:21;9.52;;;5.45;;
74650;SDS011;63169;46.042;14.592;2022-12-24T06:19:47;9.75;;;4.65;;
74650;SDS011;63169;46.042;14.592;2022-12-24T06:22:12;9.15;;;4.95;;
74650;SDS011;63169;46.042;14.592;2022-12-24T06:24:37;11.00;;;6.00;;
74650;SDS011;63169;46.042;14.592;2022-12-24T06:27:03;8.60;;;5.20;;
74650;SDS011;63169;46.042;14.592;2022-12-24T06:29:28;11.45;;;5.90;;
74650;SDS011;63169;46.042;14.592;2022-12-24T06:31:53;10.05;;;5.40;;
74650;SDS011;63169;46.042;14.592;2022-12-24T06:34:19;11.68;;;6.55;;
74650;SDS011;63169;46.042;14.592;2022-12-24T06:36:44;10.05;;;5.53;;
74650;SDS011;63169;46.042;14.592;2022-12-24T06:39:10;11.88;;;5.78;;
74650;SDS011;63169;46.042;14.592;2022-12-24T06:41:35;9.00;;;5.28;;
74650;SDS011;63169;46.042;14.592;2022-12-24T06:44:00;9.27;;;5.05;;
74650;SDS011;63169;46.042;14.592;2022-12-24T06:46:26;10.80;;;4.90;;
74650;SDS011;63169;46.042;14.592;2022-12-24T06:48:51;9.07;;;5.13;;
74650;SDS011;63169;46.042;14.592;2022-12-24T06:51:18;9.70;;;5.55;;
74650;SDS011;63169;46.042;14.592;2022-12-24T06:53:44;11.25;;;8.57;;
74650;SDS011;63169;46.042;14.592;2022-12-24T06:56:11;10.65;;;4.82;;
74650;SDS011;63169;46.042;14.592;2022-12-24T06:58:37;8.32;;;5.43;;
74650;SDS011;63169;46.042;14.592;2022-12-24T07:01:03;7.80;;;3.50;;
74650;SDS011;63169;46.042;14.592;2022-12-24T07:05:55;8.85;;;4.22;;
74650;SDS011;63169;46.042;14.592;2022-12-24T07:08:20;9.80;;;4.60;;
74650;SDS011;63169;46.042;14.592;2022-12-24T07:10:49;10.32;;;4.90;;
74650;SDS011;63169;46.042;14.592;2022-12-24T07:13:15;9.00;;;5.38;;
74650;SDS011;63169;46.042;14.592;2022-12-24T07:15:41;9.63;;;5.40;;
74650;SDS011;63169;46.042;14.592;2022-12-24T07:18:06;9.75;;;4.53;;
74650;SDS011;63169;46.042;14.592;2022-12-24T07:20:32;8.73;;;4.88;;
74650;SDS011;63169;46.042;14.592;2022-12-24T07:22:57;7.35;;;4.05;;
74650;SDS011;63169;46.042;14.592;2022-12-24T07:25:22;8.15;;;3.97;;
74650;SDS011;63169;46.042;14.592;2022-12-24T07:27:48;6.95;;;4.28;;
74650;SDS011;63169;46.042;14.592;2022-12-24T07:30:13;7.47;;;3.72;;
74650;SDS011;63169;46.042;14.592;2022-12-24T07:32:39;6.15;;;3.40;;
74650;SDS011;63169;46.042;14.592;2022-12-24T07:35:05;8.57;;;4.05;;
74650;SDS011;63169;46.042;14.592;2022-12-24T07:37:31;8.75;;;4.00;;
74650;SDS011;63169;46.042;14.592;2022-12-24T07:39:56;9.65;;;4.88;;
74650;SDS011;63169;46.042;14.592;2022-12-24T07:42:21;8.30;;;3.70;;
74650;SDS011;63169;46.042;14.592;2022-12-24T07:44:47;10.85;;;5.32;;
74650;SDS011;63169;46.042;14.592;2022-12-24T07:47:12;43.85;;;26.52;;
74650;SDS011;63169;46.042;14.592;2022-12-24T07:49:38;11.32;;;6.60;;
74650;SDS011;63169;46.042;14.592;2022-12-24T07:52:03;8.23;;;4.05;;
74650;SDS011;63169;46.042;14.592;2022-12-24T07:54:29;8.25;;;3.97;;
74650;SDS011;63169;46.042;14.592;2022-12-24T07:56:54;6.63;;;2.95;;
74650;SDS011;63169;46.042;14.592;2022-12-24T07:59:20;6.82;;;3.63;;
74650;SDS011;63169;46.042;14.592;2022-12-24T08:01:45;6.97;;;3.17;;
74650;SDS011;63169;46.042;14.592;2022-12-24T08:04:11;9.63;;;4.20;;
74650;SDS011;63169;46.042;14.592;2022-12-24T08:06:36;6.97;;;2.72;;
74650;SDS011;63169;46.042;14.592;2022-12-24T08:09:02;6.43;;;3.17;;
74650;SDS011;63169;46.042;14.592;2022-12-24T08:11:27;6.70;;;2.90;;
74650;SDS011;63169;46.042;14.592;2022-12-24T08:13:53;5.07;;;2.63;;
74650;SDS011;63169;46.042;14.592;2022-12-24T08:16:18;9.48;;;6.53;;
74650;SDS011;63169;46.042;14.592;2022-12-24T08:18:44;6.03;;;3.15;;
74650;SDS011;63169;46.042;14.592;2022-12-24T08:21:09;5.38;;;2.97;;
74650;SDS011;63169;46.042;14.592;2022-12-24T08:23:35;6.55;;;3.63;;
74650;SDS011;63169;46.042;14.592;2022-12-24T08:26:01;6.80;;;4.20;;
74650;SDS011;63169;46.042;14.592;2022-12-24T08:28:26;6.90;;;3.35;;
74650;SDS011;63169;46.042;14.592;2022-12-24T08:30:52;8.80;;;4.63;;
74650;SDS011;63169;46.042;14.592;2022-12-24T08:33:18;8.88;;;4.55;;
74650;SDS011;63169;46.042;14.592;2022-12-24T08:35:50;7.32;;;3.92;;
74650;SDS011;63169;46.042;14.592;2022-12-24T08:38:17;6.85;;;3.75;;
74650;SDS011;63169;46.042;14.592;2022-12-24T08:40:43;8.43;;;3.90;;
74650;SDS011;63169;46.042;14.592;2022-12-24T08:43:08;8.60;;;4.47;;
74650;SDS011;63169;46.042;14.592;2022-12-24T08:45:34;6.82;;;3.95;;
74650;SDS011;63169;46.042;14.592;2022-12-24T08:48:00;8.10;;;3.78;;
74650;SDS011;63169;46.042;14.592;2022-12-24T08:50:25;39.10;;;30.42;;
74650;SDS011;63169;46.042;14.592;2022-12-24T08:52:52;9.60;;;4.57;;
74650;SDS011;63169;46.042;14.592;2022-12-24T08:55:18;13.68;;;4.22;;
74650;SDS011;63169;46.042;14.592;2022-12-24T08:57:43;10.65;;;5.40;;
74650;SDS011;63169;46.042;14.592;2022-12-24T09:00:10;9.68;;;5.03;;
74650;SDS011;63169;46.042;14.592;2022-12-24T09:02:36;8.00;;;5.18;;
74650;SDS011;63169;46.042;14.592;2022-12-24T09:05:02;11.25;;;5.38;;
74650;SDS011;63169;46.042;14.592;2022-12-24T09:07:27;7.55;;;4.20;;
74650;SDS011;63169;46.042;14.592;2022-12-24T09:09:53;7.95;;;4.28;;
74650;SDS011;63169;46.042;14.592;2022-12-24T09:12:18;8.02;;;4.55;;
74650;SDS011;63169;46.042;14.592;2022-12-24T09:14:44;9.25;;;3.60;;
74650;SDS011;63169;46.042;14.592;2022-12-24T09:17:09;8.77;;;4.55;;
74650;SDS011;63169;46.042;14.592;2022-12-24T09:19:34;12.32;;;4.85;;
74650;SDS011;63169;46.042;14.592;2022-12-24T09:22:00;9.93;;;4.97;;
74650;SDS011;63169;46.042;14.592;2022-12-24T09:24:25;11.20;;;6.03;;
74650;SDS011;63169;46.042;14.592;2022-12-24T09:26:50;8.52;;;5.80;;
74650;SDS011;63169;46.042;14.592;2022-12-24T09:29:16;10.30;;;4.25;;
74650;SDS011;63169;46.042;14.592;2022-12-24T09:31:41;8.85;;;5.13;;
74650;SDS011;63169;46.042;14.592;2022-12-24T09:34:07;12.20;;;6.75;;
74650;SDS011;63169;46.042;14.592;2022-12-24T09:36:33;13.48;;;7.35;;
74650;SDS011;63169;46.042;14.592;2022-12-24T09:38:58;11.80;;;4.43;;
74650;SDS011;63169;46.042;14.592;2022-12-24T09:43:57;6.50;;;2.97;;
74650;SDS011;63169;46.042;14.592;2022-12-24T09:46:34;6.57;;;4.18;;
74650;SDS011;63169;46.042;14.592;2022-12-24T09:49:02;5.25;;;2.85;;
74650;SDS011;63169;46.042;14.592;2022-12-24T09:51:35;7.13;;;3.15;;
74650;SDS011;63169;46.042;14.592;2022-12-24T09:56:51;7.60;;;3.28;;
74650;SDS011;63169;46.042;14.592;2022-12-24T09:59:21;8.27;;;3.40;;
74650;SDS011;63169;46.042;14.592;2022-12-24T10:01:49;6.35;;;3.28;;
74650;SDS011;63169;46.042;14.592;2022-12-24T10:04:17;6.75;;;3.63;;
74650;SDS011;63169;46.042;14.592;2022-12-24T10:20:02;11.00;;;3.53;;
74650;SDS011;63169;46.042;14.592;2022-12-24T10:25:27;7.88;;;3.47;;
74650;SDS011;63169;46.042;14.592;2022-12-24T10:27:54;6.38;;;2.53;;
74650;SDS011;63169;46.042;14.592;2022-12-24T10:30:21;7.30;;;3.17;;
74650;SDS011;63169;46.042;14.592;2022-12-24T10:32:47;7.07;;;3.53;;
74650;SDS011;63169;46.042;14.592;2022-12-24T10:35:17;6.20;;;3.42;;
74650;SDS011;63169;46.042;14.592;2022-12-24T10:37:59;8.13;;;3.95;;
74650;SDS011;63169;46.042;14.592;2022-12-24T10:40:38;8.13;;;3.47;;
74650;SDS011;63169;46.042;14.592;2022-12-24T10:45:54;7.80;;;4.70;;
74650;SDS011;63169;46.042;14.592;2022-12-24T10:48:43;9.77;;;4.38;;
74650;SDS011;63169;46.042;14.592;2022-12-24T10:54:05;8.68;;;5.82;;
74650;SDS011;63169;46.042;14.592;2022-12-24T10:56:37;12.18;;;5.47;;
74650;SDS011;63169;46.042;14.592;2022-12-24T10:59:05;12.20;;;7.22;;
74650;SDS011;63169;46.042;14.592;2022-12-24T11:01:45;12.85;;;7.80;;
74650;SDS011;63169;46.042;14.592;2022-12-24T11:04:19;12.85;;;6.88;;
74650;SDS011;63169;46.042;14.592;2022-12-24T11:07:02;11.35;;;6.05;;
74650;SDS011;63169;46.042;14.592;2022-12-24T11:12:00;10.68;;;5.72;;
74650;SDS011;63169;46.042;14.592;2022-12-24T11:14:31;10.55;;;5.78;;
74650;SDS011;63169;46.042;14.592;2022-12-24T11:16:58;16.52;;;8.88;;
74650;SDS011;63169;46.042;14.592;2022-12-24T11:19:33;11.95;;;6.20;;
74650;SDS011;63169;46.042;14.592;2022-12-24T11:22:04;9.38;;;5.38;;
74650;SDS011;63169;46.042;14.592;2022-12-24T11:24:34;7.97;;;5.28;;
74650;SDS011;63169;46.042;14.592;2022-12-24T11:32:39;10.55;;;8.30;;
74650;SDS011;63169;46.042;14.592;2022-12-24T11:35:16;11.23;;;5.53;;
74650;SDS011;63169;46.042;14.592;2022-12-24T11:40:27;11.88;;;5.93;;
74650;SDS011;63169;46.042;14.592;2022-12-24T11:43:00;16.08;;;10.02;;
74650;SDS011;63169;46.042;14.592;2022-12-24T11:45:28;11.30;;;6.70;;
74650;SDS011;63169;46.042;14.592;2022-12-24T11:47:55;13.13;;;8.73;;
74650;SDS011;63169;46.042;14.592;2022-12-24T11:52:53;10.55;;;6.93;;
74650;SDS011;63169;46.042;14.592;2022-12-24T12:00:35;11.65;;;6.47;;
74650;SDS011;63169;46.042;14.592;2022-12-24T12:03:01;9.70;;;6.32;;
74650;SDS011;63169;46.042;14.592;2022-12-24T12:05:28;9.30;;;5.95;;
74650;SDS011;63169;46.042;14.592;2022-12-24T12:07:57;11.07;;;6.50;;
74650;SDS011;63169;46.042;14.592;2022-12-24T12:10:38;13.05;;;7.15;;
74650;SDS011;63169;46.042;14.592;2022-12-24T12:13:10;11.55;;;7.15;;
74650;SDS011;63169;46.042;14.592;2022-12-24T12:15:48;13.68;;;8.27;;
74650;SDS011;63169;46.042;14.592;2022-12-24T12:20:44;11.48;;;6.28;;
74650;SDS011;63169;46.042;14.592;2022-12-24T12:23:20;13.07;;;6.18;;
74650;SDS011;63169;46.042;14.592;2022-12-24T12:28:49;14.55;;;6.35;;
74650;SDS011;63169;46.042;14.592;2022-12-24T12:31:17;13.63;;;6.88;;
74650;SDS011;63169;46.042;14.592;2022-12-24T12:33:47;13.15;;;6.80;;
74650;SDS011;63169;46.042;14.592;2022-12-24T12:36:17;15.48;;;10.77;;
74650;SDS011;63169;46.042;14.592;2022-12-24T12:38:45;17.30;;;8.23;;
74650;SDS011;63169;46.042;14.592;2022-12-24T12:41:22;14.70;;;7.72;;
74650;SDS011;63169;46.042;14.592;2022-12-24T12:43:58;12.35;;;7.60;;
74650;SDS011;63169;46.042;14.592;2022-12-24T12:57:23;13.07;;;7.93;;
74650;SDS011;63169;46.042;14.592;2022-12-24T12:59:52;11.70;;;6.93;;
74650;SDS011;63169;46.042;14.592;2022-12-24T13:13:10;13.80;;;7.80;;
74650;SDS011;63169;46.042;14.592;2022-12-24T13:20:45;15.43;;;7.45;;
74650;SDS011;63169;46.042;14.592;2022-12-24T13:23:13;13.10;;;7.80;;
74650;SDS011;63169;46.042;14.592;2022-12-24T13:25:44;13.00;;;7.80;;
74650;SDS011;63169;46.042;14.592;2022-12-24T13:28:16;14.43;;;7.75;;
74650;SDS011;63169;46.042;14.592;2022-12-24T13:30:44;16.30;;;9.18;;
74650;SDS011;63169;46.042;14.592;2022-12-24T13:33:11;14.18;;;8.00;;
74650;SDS011;63169;46.042;14.592;2022-12-24T13:35:57;16.67;;;8.40;;
74650;SDS011;63169;46.042;14.592;2022-12-24T13:40:53;15.25;;;8.98;;
74650;SDS011;63169;46.042;14.592;2022-12-24T13:43:18;15.68;;;7.88;;
74650;SDS011;63169;46.042;14.592;2022-12-24T13:45:45;14.68;;;8.73;;
74650;SDS011;63169;46.042;14.592;2022-12-24T13:58:30;12.27;;;6.68;;
74650;SDS011;63169;46.042;14.592;2022-12-24T14:00:56;15.93;;;7.03;;
74650;SDS011;63169;46.042;14.592;2022-12-24T14:03:25;10.82;;;6.25;;
74650;SDS011;63169;46.042;14.592;2022-12-24T14:06:05;14.27;;;7.50;;
74650;SDS011;63169;46.042;14.592;2022-12-24T14:08:37;11.93;;;6.65;;
74650;SDS011;63169;46.042;14.592;2022-12-24T14:11:13;12.00;;;6.57;;
74650;SDS011;63169;46.042;14.592;2022-12-24T14:16:11;12.35;;;7.38;;
74650;SDS011;63169;46.042;14.592;2022-12-24T14:18:39;16.05;;;8.23;;
74650;SDS011;63169;46.042;14.592;2022-12-24T14:21:07;16.73;;;9.45;;
74650;SDS011;63169;46.042;14.592;2022-12-24T14:23:42;14.82;;;9.40;;
74650;SDS011;63169;46.042;14.592;2022-12-24T14:26:13;15.43;;;9.40;;
74650;SDS011;63169;46.042;14.592;2022-12-24T14:28:46;15.65;;;9.77;;
74650;SDS011;63169;46.042;14.592;2022-12-24T14:31:23;16.35;;;8.95;;
74650;SDS011;63169;46.042;14.592;2022-12-24T14:33:49;17.38;;;10.48;;
74650;SDS011;63169;46.042;14.592;2022-12-24T14:36:19;16.77;;;9.15;;
74650;SDS011;63169;46.042;14.592;2022-12-24T14:38:47;15.55;;;11.95;;
74650;SDS011;63169;46.042;14.592;2022-12-24T14:54:44;15.90;;;9.15;;
74650;SDS011;63169;46.042;14.592;2022-12-24T14:57:13;14.95;;;9.07;;
74650;SDS011;63169;46.042;14.592;2022-12-24T15:07:50;17.40;;;11.48;;
74650;SDS011;63169;46.042;14.592;2022-12-24T15:13:06;12.32;;;8.88;;
74650;SDS011;63169;46.042;14.592;2022-12-24T15:15:54;14.75;;;8.98;;
74650;SDS011;63169;46.042;14.592;2022-12-24T15:18:21;14.65;;;9.23;;
74650;SDS011;63169;46.042;14.592;2022-12-24T15:20:50;16.92;;;9.43;;
74650;SDS011;63169;46.042;14.592;2022-12-24T15:23:18;11.95;;;7.00;;
74650;SDS011;63169;46.042;14.592;2022-12-24T15:25:44;15.30;;;8.32;;
74650;SDS011;63169;46.042;14.592;2022-12-24T15:28:17;15.80;;;9.63;;
74650;SDS011;63169;46.042;14.592;2022-12-24T15:30:43;12.85;;;7.05;;
74650;SDS011;63169;46.042;14.592;2022-12-24T15:33:09;12.43;;;6.47;;
74650;SDS011;63169;46.042;14.592;2022-12-24T15:40:55;11.02;;;6.05;;
74650;SDS011;63169;46.042;14.592;2022-12-24T15:43:21;10.63;;;6.35;;
74650;SDS011;63169;46.042;14.592;2022-12-24T15:45:47;11.52;;;6.45;;
74650;SDS011;63169;46.042;14.592;2022-12-24T15:48:15;12.85;;;6.72;;
74650;SDS011;63169;46.042;14.592;2022-12-24T15:50:52;14.73;;;6.65;;
74650;SDS011;63169;46.042;14.592;2022-12-24T15:53:29;11.65;;;7.10;;
74650;SDS011;63169;46.042;14.592;2022-12-24T15:56:10;21.13;;;12.00;;
74650;SDS011;63169;46.042;14.592;2022-12-24T15:58:38;32.80;;;17.23;;
74650;SDS011;63169;46.042;14.592;2022-12-24T16:03:33;28.65;;;17.85;;
74650;SDS011;63169;46.042;14.592;2022-12-24T16:08:27;36.28;;;17.25;;
74650;SDS011;63169;46.042;14.592;2022-12-24T16:16:15;15.50;;;9.13;;
74650;SDS011;63169;46.042;14.592;2022-12-24T16:18:55;30.67;;;14.68;;
74650;SDS011;63169;46.042;14.592;2022-12-24T16:21:33;23.23;;;13.60;;
74650;SDS011;63169;46.042;14.592;2022-12-24T16:24:19;30.40;;;15.18;;
74650;SDS011;63169;46.042;14.592;2022-12-24T16:26:46;29.00;;;14.98;;
74650;SDS011;63169;46.042;14.592;2022-12-24T16:29:14;24.73;;;13.07;;
74650;SDS011;63169;46.042;14.592;2022-12-24T16:34:28;15.82;;;8.90;;
74650;SDS011;63169;46.042;14.592;2022-12-24T16:39:20;16.80;;;8.43;;
74650;SDS011;63169;46.042;14.592;2022-12-24T16:41:47;15.85;;;8.52;;
74650;SDS011;63169;46.042;14.592;2022-12-24T16:44:32;22.33;;;11.32;;
74650;SDS011;63169;46.042;14.592;2022-12-24T16:46:57;20.80;;;10.32;;
74650;SDS011;63169;46.042;14.592;2022-12-24T16:49:24;12.45;;;6.22;;
74650;SDS011;63169;46.042;14.592;2022-12-24T16:51:49;17.20;;;7.93;;
74650;SDS011;63169;46.042;14.592;2022-12-24T16:54:15;15.13;;;7.25;;
74650;SDS011;63169;46.042;14.592;2022-12-24T16:56:40;15.32;;;7.47;;
74650;SDS011;63169;46.042;14.592;2022-12-24T16:59:19;17.10;;;9.30;;
74650;SDS011;63169;46.042;14.592;2022-12-24T17:01:46;18.98;;;11.65;;
74650;SDS011;63169;46.042;14.592;2022-12-24T17:04:12;13.45;;;6.38;;
74650;SDS011;63169;46.042;14.592;2022-12-24T17:06:38;14.45;;;7.40;;
74650;SDS011;63169;46.042;14.592;2022-12-24T17:09:04;28.33;;;12.48;;
74650;SDS011;63169;46.042;14.592;2022-12-24T17:11:29;27.45;;;13.57;;
74650;SDS011;63169;46.042;14.592;2022-12-24T17:13:55;19.00;;;9.30;;
74650;SDS011;63169;46.042;14.592;2022-12-24T17:16:20;15.98;;;8.07;;
74650;SDS011;63169;46.042;14.592;2022-12-24T17:18:46;15.52;;;9.25;;
74650;SDS011;63169;46.042;14.592;2022-12-24T17:23:40;11.18;;;6.13;;
74650;SDS011;63169;46.042;14.592;2022-12-24T17:26:06;16.10;;;7.50;;